Salto Veloso, Brazil
Current Conditions -  °F | °C
As of 6:00 AM on Thursday 27 Nov 2014 (Local Time) from SBCH Reporting Station
Clear Clear  
Wind Chill: 68°   Ceiling: Unl
Heat Index: 68°   Visibility: 6mi
Dew Point: 63°   Wind: 17mph
Humidity: 83%   Direction: 110°ESE
Pressure: 29.88"   Gusts: NA
Location:  26.91°S, 51.41°W
Report Text: SBCH 270800Z 11015KT CAVOK 20/17 Q1012
Loading
Personal Weather Stations






























Interactive Weather Map New forecast layout! Learn more

10-Day Weather Forecast

Advertisements
Track Severe Weather on mobile